createdAt,value
2022-08-07T00:02:36.229Z,18.42
2022-08-07T00:05:29.510Z,18.43
2022-08-07T00:08:32.354Z,18.42
2022-08-07T00:11:39.951Z,18.41
2022-08-07T00:14:57.409Z,18.41
2022-08-07T00:18:00.794Z,18.43
2022-08-07T00:21:08.206Z,18.41
2022-08-07T00:24:31.676Z,18.35
2022-08-07T00:27:52.759Z,18.41
2022-08-07T00:30:56.719Z,18.39
2022-08-07T00:33:59.375Z,18.32
2022-08-07T00:37:05.024Z,18.36
2022-08-07T00:40:10.825Z,18.34
2022-08-07T00:44:01.151Z,18.34
2022-08-07T00:46:39.612Z,18.27
2022-08-07T00:50:19.917Z,18.32
2022-08-07T00:53:05.716Z,18.29
2022-08-07T00:56:15.526Z,18.25
2022-08-07T00:59:20.009Z,18.21
2022-08-07T01:02:35.720Z,18.18
2022-08-07T01:05:53.483Z,18.14
2022-08-07T01:09:00.686Z,18.11
2022-08-07T01:12:28.708Z,18.08
2022-08-07T01:15:36.005Z,18.03
2022-08-07T01:18:51.741Z,18.02
2022-08-07T01:21:56.017Z,18.00
2022-08-07T01:25:00.994Z,17.98
2022-08-07T01:28:08.793Z,17.99
2022-08-07T01:31:17.947Z,17.97
2022-08-07T01:34:30.610Z,17.98
2022-08-07T01:37:33.957Z,17.98
2022-08-07T01:40:40.140Z,17.93
2022-08-07T01:43:45.410Z,17.97
2022-08-07T01:46:49.290Z,17.98
2022-08-07T01:49:54.747Z,17.95
2022-08-07T01:53:02.225Z,17.97
2022-08-07T01:56:23.154Z,18.04
2022-08-07T01:59:46.200Z,18.03
2022-08-07T02:03:18.877Z,18.01
2022-08-07T02:06:31.365Z,17.99
2022-08-07T02:09:58.199Z,17.94
2022-08-07T02:13:02.860Z,17.90
2022-08-07T02:16:08.840Z,17.88
2022-08-07T02:20:04.472Z,17.86
2022-08-07T02:22:43.820Z,17.77
2022-08-07T02:26:31.341Z,17.82
2022-08-07T02:29:13.643Z,17.82
2022-08-07T02:32:23.159Z,17.82
2022-08-07T02:36:30.619Z,17.84
2022-08-07T02:38:57.052Z,17.86
2022-08-07T02:42:03.041Z,17.82
2022-08-07T02:45:59.379Z,17.85
2022-08-07T02:48:40.378Z,17.84
2022-08-07T02:52:01.052Z,17.79
2022-08-07T02:56:03.153Z,17.74
2022-08-07T02:58:55.226Z,17.71
2022-08-07T03:02:02.183Z,17.68
2022-08-07T03:05:06.859Z,17.66
2022-08-07T03:08:11.628Z,17.61
2022-08-07T03:11:15.398Z,17.58
2022-08-07T03:14:19.901Z,17.56
2022-08-07T03:17:26.151Z,17.48
2022-08-07T03:20:30.402Z,17.49
2022-08-07T03:24:17.850Z,17.47
2022-08-07T03:27:03.709Z,17.46
2022-08-07T03:30:10.697Z,17.52
2022-08-07T03:33:18.247Z,17.50
2022-08-07T03:36:26.502Z,17.51
2022-08-07T03:39:46.571Z,17.45
2022-08-07T03:42:56.938Z,17.39
2022-08-07T03:46:03.000Z,17.40
2022-08-07T03:49:08.770Z,17.45
2022-08-07T03:52:22.932Z,17.47
2022-08-07T03:55:58.109Z,17.42
2022-08-07T03:59:08.405Z,17.32
2022-08-07T04:02:16.129Z,16.89
2022-08-07T04:05:28.640Z,16.69
2022-08-07T04:08:41.834Z,16.49
2022-08-07T04:12:26.622Z,16.35
2022-08-07T04:15:12.334Z,16.23
2022-08-07T04:18:58.421Z,16.16
2022-08-07T04:21:59.346Z,16.18
2022-08-07T04:25:11.784Z,16.11
2022-08-07T04:28:16.019Z,16.17
2022-08-07T04:32:02.244Z,16.22
2022-08-07T04:34:50.519Z,16.23
2022-08-07T04:38:05.597Z,16.23
2022-08-07T04:41:18.270Z,16.29
2022-08-07T04:44:22.895Z,16.26
2022-08-07T04:48:09.988Z,16.36
2022-08-07T04:51:32.843Z,16.40
2022-08-07T04:58:24.304Z,16.41
2022-08-07T05:00:09.696Z,16.44
2022-08-07T05:02:39.907Z,16.55
2022-08-07T05:06:19.382Z,16.59
2022-08-07T05:09:51.254Z,16.70
2022-08-07T05:13:09.984Z,16.77
2022-08-07T05:16:26.728Z,16.87
2022-08-07T05:19:44.885Z,16.93
2022-08-07T05:22:51.866Z,16.98
2022-08-07T05:26:11.700Z,17.04
2022-08-07T05:29:22.576Z,17.10
2022-08-07T05:32:26.476Z,17.16
2022-08-07T05:35:33.345Z,17.21
2022-08-07T05:39:01.264Z,17.29
2022-08-07T05:42:07.498Z,17.39
2022-08-07T05:45:26.242Z,17.58
2022-08-07T05:48:58.335Z,17.68
2022-08-07T05:52:02.034Z,17.86
2022-08-07T05:55:10.652Z,18.09
2022-08-07T05:58:17.214Z,18.23
2022-08-07T06:01:35.673Z,18.37
2022-08-07T06:04:45.338Z,18.47
2022-08-07T06:08:30.358Z,18.66
2022-08-07T06:11:20.490Z,18.80
2022-08-07T06:14:28.838Z,18.91
2022-08-07T06:17:37.563Z,19.07
2022-08-07T06:20:50.291Z,19.21
2022-08-07T06:24:45.983Z,19.31
2022-08-07T06:28:00.372Z,19.61
2022-08-07T06:30:58.191Z,20.10
2022-08-07T06:34:01.874Z,20.41
2022-08-07T06:37:05.205Z,20.73
2022-08-07T06:40:16.831Z,21.46
2022-08-07T06:43:39.633Z,21.96
2022-08-07T06:46:43.111Z,21.72
2022-08-07T06:49:58.250Z,21.76
2022-08-07T06:53:04.580Z,22.01
2022-08-07T06:56:15.118Z,22.85
2022-08-07T07:00:13.649Z,23.35
2022-08-07T07:03:01.140Z,22.96
2022-08-07T07:06:11.661Z,22.62
2022-08-07T07:09:25.582Z,22.47
2022-08-07T07:12:48.921Z,22.44
2022-08-07T07:16:05.217Z,22.15
2022-08-07T07:19:57.570Z,22.04
2022-08-07T07:22:39.765Z,22.56
2022-08-07T07:26:32.867Z,22.75
2022-08-07T07:29:40.049Z,23.08
2022-08-07T07:32:57.807Z,23.26
2022-08-07T07:36:05.602Z,23.70
2022-08-07T07:39:17.634Z,23.63
2022-08-07T07:42:25.868Z,23.93
2022-08-07T07:46:36.709Z,23.58
2022-08-07T07:50:31.380Z,23.60
2022-08-07T07:52:30.133Z,23.09
2022-08-07T07:55:45.378Z,23.20
2022-08-07T07:59:00.428Z,23.16
2022-08-07T08:02:10.612Z,23.25
2022-08-07T08:05:16.329Z,23.15
2022-08-07T08:08:35.058Z,23.19
2022-08-07T08:11:59.150Z,23.16
2022-08-07T08:15:07.026Z,23.46
2022-08-07T08:18:17.600Z,23.58
2022-08-07T08:21:55.937Z,23.66
2022-08-07T08:25:42.557Z,23.59
2022-08-07T08:28:50.654Z,23.94
2022-08-07T08:32:17.113Z,24.29
2022-08-07T08:35:23.430Z,24.49
2022-08-07T08:38:40.405Z,24.59
2022-08-07T08:41:58.788Z,24.84
2022-08-07T08:45:26.853Z,24.71
2022-08-07T08:49:06.685Z,24.86
2022-08-07T08:52:19.765Z,25.17
2022-08-07T08:55:55.496Z,26.17
2022-08-07T08:59:16.379Z,27.19
2022-08-07T09:02:36.785Z,28.15
2022-08-07T09:05:53.323Z,29.07
2022-08-07T09:09:21.056Z,28.54
2022-08-07T09:13:10.850Z,29.35
2022-08-07T09:16:51.463Z,28.49
2022-08-07T09:20:34.991Z,28.08
2022-08-07T09:24:32.306Z,28.72
2022-08-07T09:27:28.785Z,29.20
2022-08-07T09:31:05.518Z,29.59
2022-08-07T09:34:18.312Z,29.28
2022-08-07T09:37:54.282Z,28.23
2022-08-07T09:41:09.403Z,28.47
2022-08-07T09:47:20.215Z,28.79
2022-08-07T09:48:29.845Z,28.77
2022-08-07T09:52:10.050Z,28.96
2022-08-07T09:55:16.955Z,29.08
2022-08-07T09:58:34.813Z,28.85
2022-08-07T10:02:13.281Z,28.50
2022-08-07T10:06:00.397Z,29.11
2022-08-07T10:10:00.890Z,28.09
2022-08-07T10:14:00.102Z,27.44
2022-08-07T10:18:00.297Z,27.42
2022-08-07T10:21:50.650Z,27.86
2022-08-07T10:24:45.828Z,27.44
2022-08-07T10:28:23.692Z,27.73
2022-08-07T10:31:49.043Z,27.42
2022-08-07T10:35:56.466Z,27.51
2022-08-07T10:39:00.077Z,28.20
2022-08-07T10:42:34.421Z,28.15
2022-08-07T10:45:58.154Z,27.96
2022-08-07T10:49:49.647Z,27.20
2022-08-07T10:52:51.875Z,26.92
2022-08-07T10:56:20.937Z,27.08
2022-08-07T10:59:58.019Z,27.19
2022-08-07T11:03:14.562Z,26.74
2022-08-07T11:06:29.245Z,26.78
2022-08-07T11:10:07.136Z,26.89
2022-08-07T11:14:45.905Z,27.04
2022-08-07T11:17:11.156Z,27.13
2022-08-07T11:20:24.578Z,27.34
2022-08-07T11:24:18.466Z,27.36
2022-08-07T11:28:01.922Z,27.49
2022-08-07T11:31:21.379Z,27.44
2022-08-07T11:34:58.159Z,26.72
2022-08-07T11:38:40.909Z,26.80
2022-08-07T11:42:02.006Z,27.04
2022-08-07T11:45:37.627Z,27.44
2022-08-07T11:49:50.346Z,27.31
2022-08-07T11:53:10.098Z,27.10
2022-08-07T11:56:36.230Z,27.55
2022-08-07T12:00:21.199Z,27.76
2022-08-07T12:03:49.563Z,27.79
2022-08-07T12:07:08.964Z,27.47
2022-08-07T12:10:26.602Z,27.51
2022-08-07T12:13:43.424Z,27.51
2022-08-07T12:17:20.326Z,27.89
2022-08-07T12:20:52.098Z,27.66
2022-08-07T12:25:08.034Z,27.98
2022-08-07T12:28:37.183Z,27.98
2022-08-07T12:32:04.771Z,27.84
2022-08-07T12:35:13.529Z,27.46
2022-08-07T12:38:38.614Z,27.51
2022-08-07T12:41:49.540Z,27.62
2022-08-07T12:44:57.962Z,27.81
2022-08-07T12:48:41.567Z,28.07
2022-08-07T12:52:17.082Z,27.94
2022-08-07T12:55:41.296Z,28.24
2022-08-07T12:58:59.515Z,28.54
2022-08-07T13:02:10.602Z,28.23
2022-08-07T13:06:02.757Z,28.55
2022-08-07T13:10:17.790Z,28.64
2022-08-07T13:12:47.602Z,28.13
2022-08-07T13:16:00.601Z,28.09
2022-08-07T13:19:46.324Z,27.98
2022-08-07T13:23:10.003Z,28.26
2022-08-07T13:26:46.032Z,27.95
2022-08-07T13:30:19.695Z,27.91
2022-08-07T13:34:32.696Z,27.87
2022-08-07T13:37:40.147Z,28.19
2022-08-07T13:40:52.831Z,28.21
2022-08-07T13:44:00.584Z,28.25
2022-08-07T13:47:10.866Z,28.28
2022-08-07T13:50:34.239Z,28.40
2022-08-07T13:54:00.502Z,28.11
2022-08-07T13:57:14.520Z,28.33
2022-08-07T14:00:39.599Z,28.50
2022-08-07T14:04:07.310Z,28.28
2022-08-07T14:07:12.619Z,28.42
2022-08-07T14:10:24.688Z,28.59
2022-08-07T14:13:33.841Z,28.46
2022-08-07T14:16:44.945Z,28.23
2022-08-07T14:20:40.777Z,28.34
2022-08-07T14:23:59.098Z,28.02
2022-08-07T14:26:55.699Z,28.22
2022-08-07T14:30:11.809Z,28.16
2022-08-07T14:33:16.575Z,28.15
2022-08-07T14:36:26.868Z,28.27
2022-08-07T14:40:15.848Z,28.45
2022-08-07T14:43:57.572Z,28.53
2022-08-07T14:49:59.186Z,28.49
2022-08-07T14:53:07.998Z,28.56
2022-08-07T14:56:15.995Z,28.59
2022-08-07T15:00:04.979Z,28.45
2022-08-07T15:03:16.457Z,28.21
2022-08-07T15:06:27.697Z,28.17
2022-08-07T15:09:58.313Z,28.04
2022-08-07T15:13:06.400Z,28.02
2022-08-07T15:16:20.142Z,27.87
2022-08-07T15:20:31.159Z,27.84
2022-08-07T15:23:17.139Z,27.81
2022-08-07T15:26:33.479Z,27.72
2022-08-07T15:30:08.460Z,27.87
2022-08-07T15:39:58.318Z,27.66
2022-08-07T15:43:53.558Z,27.77
2022-08-07T15:50:37.993Z,27.67
2022-08-07T15:53:56.038Z,27.54
2022-08-07T15:57:00.874Z,27.65
2022-08-07T16:00:06.407Z,27.64
2022-08-07T16:03:21.612Z,27.54
2022-08-07T16:06:55.306Z,27.51
2022-08-07T16:10:27.850Z,27.50
2022-08-07T16:13:58.916Z,27.54
2022-08-07T16:18:01.600Z,27.55
2022-08-07T16:21:56.757Z,27.53
2022-08-07T16:24:59.773Z,27.47
2022-08-07T16:30:06.570Z,27.36
2022-08-07T16:32:33.252Z,27.29
2022-08-07T16:35:58.678Z,27.15
2022-08-07T16:39:40.205Z,27.06
2022-08-07T16:42:52.717Z,27.02
2022-08-07T16:47:07.676Z,26.93
2022-08-07T16:50:39.213Z,26.87
2022-08-07T16:54:16.730Z,26.79
2022-08-07T16:58:03.512Z,26.62
2022-08-07T17:01:23.792Z,26.57
2022-08-07T17:04:29.540Z,26.47
2022-08-07T17:07:55.613Z,26.43
2022-08-07T17:11:06.655Z,26.38
2022-08-07T17:14:22.265Z,26.28
2022-08-07T17:17:46.371Z,26.27
2022-08-07T17:20:54.717Z,26.17
2022-08-07T17:24:16.324Z,26.10
2022-08-07T17:27:34.358Z,25.93
2022-08-07T17:31:00.722Z,25.89
2022-08-07T17:34:34.754Z,25.76
2022-08-07T17:38:05.715Z,25.66
2022-08-07T17:42:03.527Z,25.49
2022-08-07T17:44:58.561Z,25.46
2022-08-07T17:48:30.663Z,25.37
2022-08-07T17:52:00.385Z,25.25
2022-08-07T17:55:55.815Z,25.10
2022-08-07T17:59:10.585Z,25.02
2022-08-07T18:02:30.004Z,24.89
2022-08-07T18:06:03.270Z,24.66
2022-08-07T18:09:16.057Z,24.60
2022-08-07T18:12:52.200Z,24.49
2022-08-07T18:16:01.893Z,24.37
2022-08-07T18:21:08.041Z,24.22
2022-08-07T18:22:48.684Z,24.19
2022-08-07T18:26:00.941Z,24.11
2022-08-07T18:30:07.038Z,24.04
2022-08-07T18:33:10.360Z,23.97
2022-08-07T18:36:40.236Z,23.92
2022-08-07T18:40:42.767Z,23.86
2022-08-07T18:43:58.203Z,23.79
2022-08-07T18:47:09.962Z,23.74
2022-08-07T18:50:48.374Z,23.60
2022-08-07T18:54:30.549Z,23.58
2022-08-07T18:58:01.348Z,23.49
2022-08-07T19:02:32.333Z,23.43
2022-08-07T19:04:57.405Z,23.33
2022-08-07T19:08:14.101Z,23.36
2022-08-07T19:11:35.887Z,23.30
2022-08-07T19:14:58.482Z,23.29
2022-08-07T19:18:16.913Z,23.27
2022-08-07T19:22:04.809Z,23.24
2022-08-07T19:26:22.810Z,23.23
2022-08-07T19:30:53.945Z,23.22
2022-08-07T19:32:18.819Z,23.22
2022-08-07T19:35:33.396Z,23.20
2022-08-07T19:38:52.905Z,23.18
2022-08-07T19:42:08.529Z,23.08
2022-08-07T19:46:05.660Z,23.11
2022-08-07T19:48:56.164Z,23.12
2022-08-07T19:52:04.423Z,23.14
2022-08-07T19:55:11.102Z,23.18
2022-08-07T19:58:15.843Z,23.16
2022-08-07T20:01:19.791Z,23.26
2022-08-07T20:04:31.417Z,23.24
2022-08-07T20:07:45.956Z,23.32
2022-08-07T20:10:56.386Z,23.34
2022-08-07T20:14:07.368Z,23.29
2022-08-07T20:17:26.827Z,23.34
2022-08-07T20:20:31.518Z,23.32
2022-08-07T20:23:43.145Z,23.30
2022-08-07T20:26:54.502Z,23.21
2022-08-07T20:30:00.437Z,23.24
2022-08-07T20:33:09.187Z,23.24
2022-08-07T20:36:31.321Z,23.20
2022-08-07T20:40:02.876Z,23.14
2022-08-07T20:43:01.131Z,23.03
2022-08-07T20:46:24.576Z,22.98
2022-08-07T20:49:58.114Z,22.94
2022-08-07T20:52:54.132Z,22.86
2022-08-07T20:55:59.758Z,22.74
2022-08-07T20:59:05.934Z,22.65
2022-08-07T21:02:35.281Z,22.54
2022-08-07T21:05:54.542Z,22.55
2022-08-07T21:09:12.880Z,22.54
2022-08-07T21:12:28.961Z,22.57
2022-08-07T21:15:58.383Z,22.57
2022-08-07T21:19:02.208Z,22.58
2022-08-07T21:22:07.306Z,22.59
2022-08-07T21:25:58.409Z,22.57
2022-08-07T21:29:15.541Z,22.56
2022-08-07T21:32:47.290Z,22.52
2022-08-07T21:36:32.157Z,22.53
2022-08-07T21:39:45.457Z,22.50
2022-08-07T21:42:59.677Z,22.48
2022-08-07T21:46:25.304Z,22.44
2022-08-07T21:50:02.380Z,22.38
2022-08-07T21:53:13.832Z,22.37
2022-08-07T21:56:37.830Z,22.34
2022-08-07T22:00:09.771Z,22.21
2022-08-07T22:03:36.648Z,22.23
2022-08-07T22:06:52.664Z,22.16
2022-08-07T22:10:00.515Z,22.03
2022-08-07T22:13:12.681Z,22.01
2022-08-07T22:16:42.142Z,21.95
2022-08-07T22:20:10.708Z,21.86
2022-08-07T22:23:40.538Z,21.79
2022-08-07T22:26:56.691Z,21.68
2022-08-07T22:30:16.644Z,21.59
2022-08-07T22:33:51.041Z,21.51
2022-08-07T22:37:01.911Z,21.44
2022-08-07T22:40:33.305Z,21.37
2022-08-07T22:43:56.627Z,21.32
2022-08-07T22:47:23.187Z,21.24
2022-08-07T22:50:39.732Z,21.21
2022-08-07T22:54:06.686Z,21.13
2022-08-07T22:57:33.939Z,21.16
2022-08-07T23:00:55.686Z,21.10
2022-08-07T23:04:16.445Z,21.03
2022-08-07T23:07:42.417Z,21.08
2022-08-07T23:11:00.082Z,21.10
2022-08-07T23:14:27.898Z,21.06
2022-08-07T23:17:52.377Z,21.04
2022-08-07T23:21:17.925Z,21.04
2022-08-07T23:24:45.406Z,20.99
2022-08-07T23:28:22.686Z,20.94
2022-08-07T23:34:22.386Z,20.95
2022-08-07T23:35:19.222Z,20.87
2022-08-07T23:38:42.924Z,20.76
2022-08-07T23:45:33.276Z,20.74
2022-08-07T23:49:01.019Z,20.74
2022-08-07T23:53:05.275Z,20.73
2022-08-07T23:56:21.160Z,20.70
